sensor_id;sensor_type;location;lat;lon;timestamp;P1;durP1;ratioP1;P2;durP2;ratioP2
21613;SDS011;10969;49.550;25.564;2022-08-19T00:00:33;11.90;;;4.43;;
21613;SDS011;10969;49.550;25.564;2022-08-19T00:02:59;8.10;;;5.05;;
21613;SDS011;10969;49.550;25.564;2022-08-19T00:05:25;5.45;;;3.90;;
21613;SDS011;10969;49.550;25.564;2022-08-19T00:07:51;6.15;;;4.00;;
21613;SDS011;10969;49.550;25.564;2022-08-19T00:10:18;6.35;;;4.65;;
21613;SDS011;10969;49.550;25.564;2022-08-19T00:12:44;8.50;;;5.07;;
21613;SDS011;10969;49.550;25.564;2022-08-19T00:15:11;8.57;;;4.57;;
21613;SDS011;10969;49.550;25.564;2022-08-19T00:17:39;5.47;;;3.63;;
21613;SDS011;10969;49.550;25.564;2022-08-19T00:20:05;8.40;;;4.35;;
21613;SDS011;10969;49.550;25.564;2022-08-19T00:22:32;8.48;;;3.67;;
21613;SDS011;10969;49.550;25.564;2022-08-19T00:24:58;8.93;;;4.47;;
21613;SDS011;10969;49.550;25.564;2022-08-19T00:27:24;6.68;;;4.45;;
21613;SDS011;10969;49.550;25.564;2022-08-19T00:29:50;6.07;;;4.50;;
21613;SDS011;10969;49.550;25.564;2022-08-19T00:32:16;6.57;;;4.90;;
21613;SDS011;10969;49.550;25.564;2022-08-19T00:34:42;6.63;;;4.53;;
21613;SDS011;10969;49.550;25.564;2022-08-19T00:37:08;5.53;;;3.83;;
21613;SDS011;10969;49.550;25.564;2022-08-19T00:39:35;4.63;;;3.97;;
21613;SDS011;10969;49.550;25.564;2022-08-19T00:42:01;7.07;;;3.97;;
21613;SDS011;10969;49.550;25.564;2022-08-19T00:44:28;6.18;;;4.30;;
21613;SDS011;10969;49.550;25.564;2022-08-19T00:46:56;8.38;;;3.92;;
21613;SDS011;10969;49.550;25.564;2022-08-19T00:49:37;8.13;;;5.25;;
21613;SDS011;10969;49.550;25.564;2022-08-19T00:52:14;6.20;;;4.32;;
21613;SDS011;10969;49.550;25.564;2022-08-19T00:54:40;7.88;;;4.32;;
21613;SDS011;10969;49.550;25.564;2022-08-19T00:57:08;6.50;;;4.38;;
21613;SDS011;10969;49.550;25.564;2022-08-19T00:59:35;9.68;;;5.30;;
21613;SDS011;10969;49.550;25.564;2022-08-19T01:02:02;6.03;;;3.78;;
21613;SDS011;10969;49.550;25.564;2022-08-19T01:04:29;6.63;;;4.50;;
21613;SDS011;10969;49.550;25.564;2022-08-19T01:06:55;6.85;;;4.68;;
21613;SDS011;10969;49.550;25.564;2022-08-19T01:09:21;4.93;;;3.33;;
21613;SDS011;10969;49.550;25.564;2022-08-19T01:11:47;9.23;;;5.22;;
21613;SDS011;10969;49.550;25.564;2022-08-19T01:14:13;5.55;;;4.50;;
21613;SDS011;10969;49.550;25.564;2022-08-19T01:16:41;6.55;;;4.72;;
21613;SDS011;10969;49.550;25.564;2022-08-19T01:19:18;5.95;;;3.83;;
21613;SDS011;10969;49.550;25.564;2022-08-19T01:21:48;7.55;;;4.28;;
21613;SDS011;10969;49.550;25.564;2022-08-19T01:24:16;6.13;;;3.90;;
21613;SDS011;10969;49.550;25.564;2022-08-19T01:26:43;5.45;;;3.90;;
21613;SDS011;10969;49.550;25.564;2022-08-19T01:29:10;7.55;;;4.13;;
21613;SDS011;10969;49.550;25.564;2022-08-19T01:31:36;5.95;;;3.97;;
21613;SDS011;10969;49.550;25.564;2022-08-19T01:34:04;6.22;;;4.55;;
21613;SDS011;10969;49.550;25.564;2022-08-19T01:36:35;6.90;;;4.07;;
21613;SDS011;10969;49.550;25.564;2022-08-19T01:39:04;8.85;;;5.50;;
21613;SDS011;10969;49.550;25.564;2022-08-19T01:41:30;9.02;;;4.55;;
21613;SDS011;10969;49.550;25.564;2022-08-19T01:43:57;5.07;;;4.18;;
21613;SDS011;10969;49.550;25.564;2022-08-19T01:46:23;5.70;;;4.03;;
21613;SDS011;10969;49.550;25.564;2022-08-19T01:48:49;10.70;;;4.55;;
21613;SDS011;10969;49.550;25.564;2022-08-19T01:51:16;5.18;;;4.13;;
21613;SDS011;10969;49.550;25.564;2022-08-19T01:53:43;5.95;;;4.03;;
21613;SDS011;10969;49.550;25.564;2022-08-19T01:56:12;5.65;;;4.22;;
21613;SDS011;10969;49.550;25.564;2022-08-19T01:58:39;6.10;;;4.22;;
21613;SDS011;10969;49.550;25.564;2022-08-19T02:01:06;5.13;;;3.90;;
21613;SDS011;10969;49.550;25.564;2022-08-19T02:03:33;5.85;;;3.95;;
21613;SDS011;10969;49.550;25.564;2022-08-19T02:06:00;6.68;;;4.88;;
21613;SDS011;10969;49.550;25.564;2022-08-19T02:08:28;7.30;;;4.88;;
21613;SDS011;10969;49.550;25.564;2022-08-19T02:10:54;8.85;;;4.57;;
21613;SDS011;10969;49.550;25.564;2022-08-19T02:13:20;8.23;;;4.80;;
21613;SDS011;10969;49.550;25.564;2022-08-19T02:15:46;6.88;;;4.38;;
21613;SDS011;10969;49.550;25.564;2022-08-19T02:18:12;7.60;;;4.97;;
21613;SDS011;10969;49.550;25.564;2022-08-19T02:20:39;6.07;;;4.47;;
21613;SDS011;10969;49.550;25.564;2022-08-19T02:23:05;5.38;;;3.97;;
21613;SDS011;10969;49.550;25.564;2022-08-19T02:25:31;6.95;;;4.82;;
21613;SDS011;10969;49.550;25.564;2022-08-19T02:27:57;9.88;;;4.95;;
21613;SDS011;10969;49.550;25.564;2022-08-19T02:30:23;8.30;;;4.32;;
21613;SDS011;10969;49.550;25.564;2022-08-19T02:32:50;6.55;;;4.78;;
21613;SDS011;10969;49.550;25.564;2022-08-19T02:35:16;6.57;;;4.80;;
21613;SDS011;10969;49.550;25.564;2022-08-19T02:37:42;9.70;;;3.95;;
21613;SDS011;10969;49.550;25.564;2022-08-19T02:40:27;7.30;;;4.22;;
21613;SDS011;10969;49.550;25.564;2022-08-19T02:42:55;4.68;;;4.05;;
21613;SDS011;10969;49.550;25.564;2022-08-19T02:45:21;7.32;;;4.53;;
21613;SDS011;10969;49.550;25.564;2022-08-19T02:47:47;7.28;;;4.53;;
21613;SDS011;10969;49.550;25.564;2022-08-19T02:50:13;7.40;;;4.35;;
21613;SDS011;10969;49.550;25.564;2022-08-19T02:52:39;7.07;;;4.38;;
21613;SDS011;10969;49.550;25.564;2022-08-19T02:55:05;5.38;;;3.80;;
21613;SDS011;10969;49.550;25.564;2022-08-19T02:57:32;6.88;;;4.68;;
21613;SDS011;10969;49.550;25.564;2022-08-19T02:59:59;7.20;;;4.85;;
21613;SDS011;10969;49.550;25.564;2022-08-19T03:02:26;5.25;;;3.85;;
21613;SDS011;10969;49.550;25.564;2022-08-19T03:04:52;8.40;;;4.65;;
21613;SDS011;10969;49.550;25.564;2022-08-19T03:07:18;5.82;;;3.85;;
21613;SDS011;10969;49.550;25.564;2022-08-19T03:09:44;7.50;;;3.90;;
21613;SDS011;10969;49.550;25.564;2022-08-19T03:12:11;6.50;;;3.90;;
21613;SDS011;10969;49.550;25.564;2022-08-19T03:14:37;5.20;;;3.42;;
21613;SDS011;10969;49.550;25.564;2022-08-19T03:17:03;6.53;;;4.40;;
21613;SDS011;10969;49.550;25.564;2022-08-19T03:19:29;7.85;;;4.70;;
21613;SDS011;10969;49.550;25.564;2022-08-19T03:21:56;8.77;;;3.72;;
21613;SDS011;10969;49.550;25.564;2022-08-19T03:24:22;9.15;;;5.13;;
21613;SDS011;10969;49.550;25.564;2022-08-19T03:26:51;6.45;;;4.97;;
21613;SDS011;10969;49.550;25.564;2022-08-19T03:29:18;5.72;;;3.50;;
21613;SDS011;10969;49.550;25.564;2022-08-19T03:31:44;8.32;;;4.57;;
21613;SDS011;10969;49.550;25.564;2022-08-19T03:34:11;6.88;;;4.18;;
21613;SDS011;10969;49.550;25.564;2022-08-19T03:36:38;6.05;;;3.83;;
21613;SDS011;10969;49.550;25.564;2022-08-19T03:39:04;8.38;;;4.55;;
21613;SDS011;10969;49.550;25.564;2022-08-19T03:41:32;10.75;;;5.28;;
21613;SDS011;10969;49.550;25.564;2022-08-19T03:43:58;8.65;;;4.60;;
21613;SDS011;10969;49.550;25.564;2022-08-19T03:46:27;7.55;;;4.75;;
21613;SDS011;10969;49.550;25.564;2022-08-19T03:48:53;9.35;;;5.28;;
21613;SDS011;10969;49.550;25.564;2022-08-19T03:51:30;8.93;;;4.70;;
21613;SDS011;10969;49.550;25.564;2022-08-19T03:53:57;7.85;;;3.85;;
21613;SDS011;10969;49.550;25.564;2022-08-19T03:56:23;12.18;;;3.55;;
21613;SDS011;10969;49.550;25.564;2022-08-19T03:58:53;4.07;;;3.38;;
21613;SDS011;10969;49.550;25.564;2022-08-19T04:01:21;5.22;;;2.80;;
21613;SDS011;10969;49.550;25.564;2022-08-19T04:03:47;4.18;;;2.80;;
21613;SDS011;10969;49.550;25.564;2022-08-19T04:06:17;3.13;;;2.60;;
21613;SDS011;10969;49.550;25.564;2022-08-19T04:08:46;3.75;;;3.35;;
21613;SDS011;10969;49.550;25.564;2022-08-19T04:11:13;4.15;;;2.83;;
21613;SDS011;10969;49.550;25.564;2022-08-19T04:13:40;20.35;;;4.18;;
21613;SDS011;10969;49.550;25.564;2022-08-19T04:16:08;4.97;;;2.78;;
21613;SDS011;10969;49.550;25.564;2022-08-19T04:18:35;4.22;;;2.90;;
21613;SDS011;10969;49.550;25.564;2022-08-19T04:21:02;7.18;;;3.42;;
21613;SDS011;10969;49.550;25.564;2022-08-19T04:23:28;6.22;;;3.65;;
21613;SDS011;10969;49.550;25.564;2022-08-19T04:25:54;6.00;;;2.85;;
21613;SDS011;10969;49.550;25.564;2022-08-19T04:28:21;4.60;;;3.15;;
21613;SDS011;10969;49.550;25.564;2022-08-19T04:30:48;4.93;;;3.55;;
21613;SDS011;10969;49.550;25.564;2022-08-19T04:33:16;4.28;;;3.13;;
21613;SDS011;10969;49.550;25.564;2022-08-19T04:35:44;3.38;;;2.85;;
21613;SDS011;10969;49.550;25.564;2022-08-19T04:38:12;6.82;;;4.18;;
21613;SDS011;10969;49.550;25.564;2022-08-19T04:40:43;4.80;;;3.15;;
21613;SDS011;10969;49.550;25.564;2022-08-19T04:43:27;4.00;;;2.40;;
21613;SDS011;10969;49.550;25.564;2022-08-19T04:45:54;3.72;;;3.13;;
21613;SDS011;10969;49.550;25.564;2022-08-19T04:48:20;4.88;;;3.10;;
21613;SDS011;10969;49.550;25.564;2022-08-19T04:50:51;5.13;;;2.75;;
21613;SDS011;10969;49.550;25.564;2022-08-19T04:53:21;3.13;;;2.42;;
21613;SDS011;10969;49.550;25.564;2022-08-19T04:55:47;4.55;;;3.22;;
21613;SDS011;10969;49.550;25.564;2022-08-19T04:58:13;10.45;;;3.30;;
21613;SDS011;10969;49.550;25.564;2022-08-19T05:00:40;4.75;;;3.35;;
21613;SDS011;10969;49.550;25.564;2022-08-19T05:03:06;5.53;;;3.03;;
21613;SDS011;10969;49.550;25.564;2022-08-19T05:05:33;3.40;;;2.83;;
21613;SDS011;10969;49.550;25.564;2022-08-19T05:07:59;3.53;;;2.88;;
21613;SDS011;10969;49.550;25.564;2022-08-19T05:10:25;3.33;;;3.03;;
21613;SDS011;10969;49.550;25.564;2022-08-19T05:12:51;3.85;;;2.45;;
21613;SDS011;10969;49.550;25.564;2022-08-19T05:15:17;5.28;;;2.90;;
21613;SDS011;10969;49.550;25.564;2022-08-19T05:17:44;4.88;;;2.85;;
21613;SDS011;10969;49.550;25.564;2022-08-19T05:20:30;4.20;;;2.53;;
21613;SDS011;10969;49.550;25.564;2022-08-19T05:23:14;3.45;;;2.95;;
21613;SDS011;10969;49.550;25.564;2022-08-19T05:25:41;3.65;;;2.80;;
21613;SDS011;10969;49.550;25.564;2022-08-19T05:28:08;3.88;;;3.28;;
21613;SDS011;10969;49.550;25.564;2022-08-19T05:30:34;3.47;;;3.03;;
21613;SDS011;10969;49.550;25.564;2022-08-19T05:33:00;3.10;;;2.60;;
21613;SDS011;10969;49.550;25.564;2022-08-19T05:35:26;7.25;;;3.53;;
21613;SDS011;10969;49.550;25.564;2022-08-19T05:37:53;3.40;;;2.65;;
21613;SDS011;10969;49.550;25.564;2022-08-19T05:40:19;5.38;;;3.00;;
21613;SDS011;10969;49.550;25.564;2022-08-19T05:42:45;5.90;;;2.75;;
21613;SDS011;10969;49.550;25.564;2022-08-19T05:45:11;4.32;;;2.83;;
21613;SDS011;10969;49.550;25.564;2022-08-19T05:47:37;3.53;;;2.47;;
21613;SDS011;10969;49.550;25.564;2022-08-19T05:50:04;5.05;;;3.20;;
21613;SDS011;10969;49.550;25.564;2022-08-19T05:52:30;4.20;;;2.92;;
21613;SDS011;10969;49.550;25.564;2022-08-19T05:54:56;4.38;;;3.13;;
21613;SDS011;10969;49.550;25.564;2022-08-19T05:57:22;6.40;;;2.88;;
21613;SDS011;10969;49.550;25.564;2022-08-19T05:59:49;4.15;;;3.30;;
21613;SDS011;10969;49.550;25.564;2022-08-19T06:02:16;4.75;;;3.47;;
21613;SDS011;10969;49.550;25.564;2022-08-19T06:04:42;5.47;;;3.22;;
21613;SDS011;10969;49.550;25.564;2022-08-19T06:07:08;5.13;;;3.00;;
21613;SDS011;10969;49.550;25.564;2022-08-19T06:09:34;3.67;;;3.22;;
21613;SDS011;10969;49.550;25.564;2022-08-19T06:12:02;5.10;;;3.20;;
21613;SDS011;10969;49.550;25.564;2022-08-19T06:14:30;7.45;;;3.88;;
21613;SDS011;10969;49.550;25.564;2022-08-19T06:16:57;5.45;;;3.45;;
21613;SDS011;10969;49.550;25.564;2022-08-19T06:19:26;6.43;;;3.67;;
21613;SDS011;10969;49.550;25.564;2022-08-19T06:21:55;5.25;;;3.50;;
21613;SDS011;10969;49.550;25.564;2022-08-19T06:24:23;4.68;;;3.60;;
21613;SDS011;10969;49.550;25.564;2022-08-19T06:26:51;7.60;;;3.25;;
21613;SDS011;10969;49.550;25.564;2022-08-19T06:29:18;4.72;;;2.90;;
21613;SDS011;10969;49.550;25.564;2022-08-19T06:31:45;5.00;;;3.50;;
21613;SDS011;10969;49.550;25.564;2022-08-19T06:34:11;4.70;;;3.33;;
21613;SDS011;10969;49.550;25.564;2022-08-19T06:36:39;3.75;;;3.05;;
21613;SDS011;10969;49.550;25.564;2022-08-19T06:39:08;3.60;;;2.92;;
21613;SDS011;10969;49.550;25.564;2022-08-19T06:41:43;4.45;;;3.33;;
21613;SDS011;10969;49.550;25.564;2022-08-19T06:44:09;4.35;;;2.88;;
21613;SDS011;10969;49.550;25.564;2022-08-19T06:46:36;4.55;;;3.47;;
21613;SDS011;10969;49.550;25.564;2022-08-19T06:49:02;4.32;;;3.10;;
21613;SDS011;10969;49.550;25.564;2022-08-19T06:51:29;3.88;;;2.72;;
21613;SDS011;10969;49.550;25.564;2022-08-19T06:53:57;3.70;;;2.90;;
21613;SDS011;10969;49.550;25.564;2022-08-19T06:56:27;3.65;;;2.90;;
21613;SDS011;10969;49.550;25.564;2022-08-19T06:58:58;3.22;;;2.40;;
21613;SDS011;10969;49.550;25.564;2022-08-19T07:01:25;2.90;;;2.60;;
21613;SDS011;10969;49.550;25.564;2022-08-19T07:03:51;3.58;;;2.53;;
21613;SDS011;10969;49.550;25.564;2022-08-19T07:06:18;4.80;;;2.72;;
21613;SDS011;10969;49.550;25.564;2022-08-19T07:08:47;5.07;;;2.88;;
21613;SDS011;10969;49.550;25.564;2022-08-19T07:11:14;4.65;;;2.63;;
21613;SDS011;10969;49.550;25.564;2022-08-19T07:13:43;3.53;;;2.80;;
21613;SDS011;10969;49.550;25.564;2022-08-19T07:16:12;3.95;;;2.47;;
21613;SDS011;10969;49.550;25.564;2022-08-19T07:18:39;3.60;;;2.90;;
21613;SDS011;10969;49.550;25.564;2022-08-19T07:21:11;4.78;;;2.63;;
21613;SDS011;10969;49.550;25.564;2022-08-19T07:23:41;6.28;;;2.50;;
21613;SDS011;10969;49.550;25.564;2022-08-19T07:26:09;3.17;;;2.53;;
21613;SDS011;10969;49.550;25.564;2022-08-19T07:28:36;5.38;;;2.63;;
21613;SDS011;10969;49.550;25.564;2022-08-19T07:31:10;6.68;;;3.17;;
21613;SDS011;10969;49.550;25.564;2022-08-19T07:33:37;4.03;;;2.53;;
21613;SDS011;10969;49.550;25.564;2022-08-19T07:36:04;5.20;;;3.15;;
21613;SDS011;10969;49.550;25.564;2022-08-19T07:38:31;3.22;;;2.55;;
21613;SDS011;10969;49.550;25.564;2022-08-19T07:40:57;4.90;;;2.78;;
21613;SDS011;10969;49.550;25.564;2022-08-19T07:43:23;9.45;;;3.08;;
21613;SDS011;10969;49.550;25.564;2022-08-19T07:45:52;3.80;;;3.00;;
21613;SDS011;10969;49.550;25.564;2022-08-19T07:48:21;3.33;;;2.38;;
21613;SDS011;10969;49.550;25.564;2022-08-19T07:50:50;6.13;;;3.15;;
21613;SDS011;10969;49.550;25.564;2022-08-19T07:53:16;4.55;;;3.03;;
21613;SDS011;10969;49.550;25.564;2022-08-19T07:55:42;3.63;;;2.38;;
21613;SDS011;10969;49.550;25.564;2022-08-19T07:58:11;3.95;;;2.80;;
21613;SDS011;10969;49.550;25.564;2022-08-19T08:00:38;4.00;;;2.50;;
21613;SDS011;10969;49.550;25.564;2022-08-19T08:03:04;4.88;;;2.80;;
21613;SDS011;10969;49.550;25.564;2022-08-19T08:05:31;3.55;;;2.47;;
21613;SDS011;10969;49.550;25.564;2022-08-19T08:08:17;3.88;;;2.67;;
21613;SDS011;10969;49.550;25.564;2022-08-19T08:11:01;2.80;;;2.42;;
21613;SDS011;10969;49.550;25.564;2022-08-19T08:13:27;2.63;;;2.42;;
21613;SDS011;10969;49.550;25.564;2022-08-19T08:15:54;2.30;;;2.10;;
21613;SDS011;10969;49.550;25.564;2022-08-19T08:18:20;3.38;;;2.10;;
21613;SDS011;10969;49.550;25.564;2022-08-19T08:20:46;4.05;;;2.38;;
21613;SDS011;10969;49.550;25.564;2022-08-19T08:23:12;3.95;;;2.28;;
21613;SDS011;10969;49.550;25.564;2022-08-19T08:25:47;2.95;;;2.58;;
21613;SDS011;10969;49.550;25.564;2022-08-19T08:28:14;2.65;;;2.25;;
21613;SDS011;10969;49.550;25.564;2022-08-19T08:30:40;2.88;;;1.80;;
21613;SDS011;10969;49.550;25.564;2022-08-19T08:33:08;2.88;;;2.08;;
21613;SDS011;10969;49.550;25.564;2022-08-19T08:35:35;2.17;;;1.80;;
21613;SDS011;10969;49.550;25.564;2022-08-19T08:38:01;3.17;;;1.92;;
21613;SDS011;10969;49.550;25.564;2022-08-19T08:43:19;2.60;;;2.10;;
21613;SDS011;10969;49.550;25.564;2022-08-19T08:46:00;2.40;;;1.65;;
21613;SDS011;10969;49.550;25.564;2022-08-19T08:48:30;3.80;;;2.28;;
21613;SDS011;10969;49.550;25.564;2022-08-19T08:50:58;4.10;;;1.67;;
21613;SDS011;10969;49.550;25.564;2022-08-19T08:53:24;1.92;;;1.67;;
21613;SDS011;10969;49.550;25.564;2022-08-19T08:55:51;1.77;;;1.52;;
21613;SDS011;10969;49.550;25.564;2022-08-19T08:58:20;2.33;;;1.88;;
21613;SDS011;10969;49.550;25.564;2022-08-19T09:00:49;1.88;;;1.77;;
21613;SDS011;10969;49.550;25.564;2022-08-19T09:03:20;1.52;;;1.42;;
21613;SDS011;10969;49.550;25.564;2022-08-19T09:06:07;1.70;;;1.38;;
21613;SDS011;10969;49.550;25.564;2022-08-19T09:11:09;1.90;;;1.70;;
21613;SDS011;10969;49.550;25.564;2022-08-19T09:16:14;2.00;;;1.80;;
21613;SDS011;10969;49.550;25.564;2022-08-19T09:18:46;2.83;;;1.60;;
21613;SDS011;10969;49.550;25.564;2022-08-19T09:23:38;2.47;;;1.52;;
21613;SDS011;10969;49.550;25.564;2022-08-19T09:26:22;2.22;;;1.52;;
21613;SDS011;10969;49.550;25.564;2022-08-19T09:28:49;5.20;;;1.88;;
21613;SDS011;10969;49.550;25.564;2022-08-19T09:31:19;1.65;;;1.55;;
21613;SDS011;10969;49.550;25.564;2022-08-19T09:33:47;1.83;;;1.42;;
21613;SDS011;10969;49.550;25.564;2022-08-19T09:36:14;2.70;;;1.88;;
21613;SDS011;10969;49.550;25.564;2022-08-19T09:38:41;2.17;;;1.92;;
21613;SDS011;10969;49.550;25.564;2022-08-19T09:41:11;1.58;;;1.30;;
21613;SDS011;10969;49.550;25.564;2022-08-19T09:43:39;1.95;;;1.73;;
21613;SDS011;10969;49.550;25.564;2022-08-19T09:46:05;5.20;;;1.65;;
21613;SDS011;10969;49.550;25.564;2022-08-19T09:48:32;1.90;;;1.65;;
21613;SDS011;10969;49.550;25.564;2022-08-19T09:51:05;2.15;;;1.63;;
21613;SDS011;10969;49.550;25.564;2022-08-19T09:53:34;7.65;;;2.65;;
21613;SDS011;10969;49.550;25.564;2022-08-19T09:56:00;4.00;;;1.90;;
21613;SDS011;10969;49.550;25.564;2022-08-19T09:58:27;2.70;;;1.77;;
21613;SDS011;10969;49.550;25.564;2022-08-19T10:00:54;2.13;;;1.77;;
21613;SDS011;10969;49.550;25.564;2022-08-19T10:03:20;2.33;;;2.10;;
21613;SDS011;10969;49.550;25.564;2022-08-19T10:05:46;2.10;;;1.90;;
21613;SDS011;10969;49.550;25.564;2022-08-19T10:08:49;1.75;;;1.63;;
21613;SDS011;10969;49.550;25.564;2022-08-19T10:11:08;1.52;;;1.42;;
21613;SDS011;10969;49.550;25.564;2022-08-19T10:13:34;2.00;;;1.80;;
21613;SDS011;10969;49.550;25.564;2022-08-19T10:16:03;1.50;;;1.35;;
21613;SDS011;10969;49.550;25.564;2022-08-19T10:18:30;3.05;;;2.05;;
21613;SDS011;10969;49.550;25.564;2022-08-19T10:21:07;7.88;;;1.42;;
21613;SDS011;10969;49.550;25.564;2022-08-19T10:23:34;3.22;;;1.48;;
21613;SDS011;10969;49.550;25.564;2022-08-19T10:26:01;2.60;;;1.77;;
21613;SDS011;10969;49.550;25.564;2022-08-19T10:28:31;3.55;;;1.95;;
21613;SDS011;10969;49.550;25.564;2022-08-19T10:30:57;1.58;;;1.48;;
21613;SDS011;10969;49.550;25.564;2022-08-19T10:33:24;4.63;;;1.95;;
21613;SDS011;10969;49.550;25.564;2022-08-19T10:35:58;2.97;;;1.92;;
21613;SDS011;10969;49.550;25.564;2022-08-19T10:38:24;2.20;;;1.70;;
21613;SDS011;10969;49.550;25.564;2022-08-19T10:40:50;1.92;;;1.58;;
21613;SDS011;10969;49.550;25.564;2022-08-19T10:43:18;1.65;;;1.55;;
21613;SDS011;10969;49.550;25.564;2022-08-19T10:45:48;2.63;;;1.67;;
21613;SDS011;10969;49.550;25.564;2022-08-19T10:48:14;4.72;;;1.67;;
21613;SDS011;10969;49.550;25.564;2022-08-19T10:50:40;4.00;;;1.85;;
21613;SDS011;10969;49.550;25.564;2022-08-19T10:53:25;1.40;;;1.30;;
21613;SDS011;10969;49.550;25.564;2022-08-19T10:55:51;1.83;;;1.38;;
21613;SDS011;10969;49.550;25.564;2022-08-19T10:58:35;2.05;;;1.40;;
21613;SDS011;10969;49.550;25.564;2022-08-19T11:01:01;1.65;;;1.50;;
21613;SDS011;10969;49.550;25.564;2022-08-19T11:03:28;2.40;;;1.60;;
21613;SDS011;10969;49.550;25.564;2022-08-19T11:05:59;3.05;;;2.00;;
21613;SDS011;10969;49.550;25.564;2022-08-19T11:08:25;2.70;;;1.50;;
21613;SDS011;10969;49.550;25.564;2022-08-19T11:10:53;2.92;;;1.98;;
21613;SDS011;10969;49.550;25.564;2022-08-19T11:13:25;3.75;;;1.90;;
21613;SDS011;10969;49.550;25.564;2022-08-19T11:16:06;2.50;;;2.30;;
21613;SDS011;10969;49.550;25.564;2022-08-19T11:18:34;1.25;;;1.08;;
21613;SDS011;10969;49.550;25.564;2022-08-19T11:21:09;1.85;;;1.30;;
21613;SDS011;10969;49.550;25.564;2022-08-19T11:23:36;1.95;;;1.70;;
21613;SDS011;10969;49.550;25.564;2022-08-19T11:26:02;1.42;;;1.30;;
21613;SDS011;10969;49.550;25.564;2022-08-19T11:28:28;1.83;;;1.48;;
21613;SDS011;10969;49.550;25.564;2022-08-19T11:30:54;2.13;;;1.35;;
21613;SDS011;10969;49.550;25.564;2022-08-19T11:33:20;3.10;;;1.58;;
21613;SDS011;10969;49.550;25.564;2022-08-19T11:35:46;1.52;;;1.30;;
21613;SDS011;10969;49.550;25.564;2022-08-19T11:38:14;1.85;;;1.63;;
21613;SDS011;10969;49.550;25.564;2022-08-19T11:40:41;1.50;;;1.40;;
21613;SDS011;10969;49.550;25.564;2022-08-19T11:43:08;1.30;;;1.20;;
21613;SDS011;10969;49.550;25.564;2022-08-19T11:45:34;3.58;;;1.60;;
21613;SDS011;10969;49.550;25.564;2022-08-19T11:48:01;1.60;;;1.38;;
21613;SDS011;10969;49.550;25.564;2022-08-19T11:50:28;1.65;;;1.48;;
21613;SDS011;10969;49.550;25.564;2022-08-19T11:52:55;2.22;;;1.63;;
21613;SDS011;10969;49.550;25.564;2022-08-19T11:55:21;5.45;;;1.67;;
21613;SDS011;10969;49.550;25.564;2022-08-19T11:57:48;1.67;;;1.30;;
21613;SDS011;10969;49.550;25.564;2022-08-19T12:00:14;3.05;;;1.80;;
21613;SDS011;10969;49.550;25.564;2022-08-19T12:02:41;1.92;;;1.70;;
21613;SDS011;10969;49.550;25.564;2022-08-19T12:05:07;2.42;;;1.90;;
21613;SDS011;10969;49.550;25.564;2022-08-19T12:07:34;2.45;;;1.50;;
21613;SDS011;10969;49.550;25.564;2022-08-19T12:10:00;2.38;;;1.90;;
21613;SDS011;10969;49.550;25.564;2022-08-19T12:12:27;3.67;;;1.92;;
21613;SDS011;10969;49.550;25.564;2022-08-19T12:14:55;2.50;;;1.83;;
21613;SDS011;10969;49.550;25.564;2022-08-19T12:17:23;3.03;;;1.40;;
21613;SDS011;10969;49.550;25.564;2022-08-19T12:19:50;3.22;;;1.20;;
21613;SDS011;10969;49.550;25.564;2022-08-19T12:22:16;1.70;;;1.50;;
21613;SDS011;10969;49.550;25.564;2022-08-19T12:24:44;3.08;;;1.70;;
21613;SDS011;10969;49.550;25.564;2022-08-19T12:27:10;2.50;;;2.08;;
21613;SDS011;10969;49.550;25.564;2022-08-19T12:29:36;1.70;;;1.23;;
21613;SDS011;10969;49.550;25.564;2022-08-19T12:32:02;1.88;;;1.25;;
21613;SDS011;10969;49.550;25.564;2022-08-19T12:34:29;1.73;;;1.60;;
21613;SDS011;10969;49.550;25.564;2022-08-19T12:36:56;1.30;;;1.20;;
21613;SDS011;10969;49.550;25.564;2022-08-19T12:39:22;3.47;;;2.15;;
21613;SDS011;10969;49.550;25.564;2022-08-19T12:41:49;2.58;;;1.88;;
21613;SDS011;10969;49.550;25.564;2022-08-19T12:44:15;2.08;;;1.45;;
21613;SDS011;10969;49.550;25.564;2022-08-19T12:46:42;2.83;;;1.38;;
21613;SDS011;10969;49.550;25.564;2022-08-19T12:49:08;1.77;;;1.52;;
21613;SDS011;10969;49.550;25.564;2022-08-19T12:51:35;1.33;;;1.13;;
21613;SDS011;10969;49.550;25.564;2022-08-19T12:54:02;2.13;;;1.88;;
21613;SDS011;10969;49.550;25.564;2022-08-19T12:56:29;1.60;;;1.50;;
21613;SDS011;10969;49.550;25.564;2022-08-19T12:58:56;2.53;;;1.63;;
21613;SDS011;10969;49.550;25.564;2022-08-19T13:01:22;1.73;;;1.63;;
21613;SDS011;10969;49.550;25.564;2022-08-19T13:03:48;5.43;;;1.88;;
21613;SDS011;10969;49.550;25.564;2022-08-19T13:06:16;1.65;;;1.40;;
21613;SDS011;10969;49.550;25.564;2022-08-19T13:08:43;2.70;;;1.23;;
21613;SDS011;10969;49.550;25.564;2022-08-19T13:11:14;4.05;;;1.35;;
21613;SDS011;10969;49.550;25.564;2022-08-19T13:13:42;1.75;;;1.45;;
21613;SDS011;10969;49.550;25.564;2022-08-19T13:16:11;3.42;;;1.75;;
21613;SDS011;10969;49.550;25.564;2022-08-19T13:18:38;4.03;;;1.50;;
21613;SDS011;10969;49.550;25.564;2022-08-19T13:21:05;4.35;;;1.77;;
21613;SDS011;10969;49.550;25.564;2022-08-19T13:23:33;1.40;;;1.30;;
21613;SDS011;10969;49.550;25.564;2022-08-19T13:26:00;2.10;;;1.73;;
21613;SDS011;10969;49.550;25.564;2022-08-19T13:28:28;1.50;;;1.40;;
21613;SDS011;10969;49.550;25.564;2022-08-19T13:31:15;1.35;;;1.27;;
21613;SDS011;10969;49.550;25.564;2022-08-19T13:33:59;2.10;;;1.23;;
21613;SDS011;10969;49.550;25.564;2022-08-19T13:36:26;5.97;;;1.88;;
21613;SDS011;10969;49.550;25.564;2022-08-19T13:38:52;3.47;;;2.10;;
21613;SDS011;10969;49.550;25.564;2022-08-19T13:41:19;2.35;;;1.65;;
21613;SDS011;10969;49.550;25.564;2022-08-19T13:43:45;2.05;;;1.52;;
21613;SDS011;10969;49.550;25.564;2022-08-19T13:46:11;2.50;;;1.88;;
21613;SDS011;10969;49.550;25.564;2022-08-19T13:48:41;1.50;;;1.10;;
21613;SDS011;10969;49.550;25.564;2022-08-19T13:51:11;1.67;;;1.15;;
21613;SDS011;10969;49.550;25.564;2022-08-19T13:53:37;2.10;;;1.35;;
21613;SDS011;10969;49.550;25.564;2022-08-19T13:56:07;1.38;;;1.20;;
21613;SDS011;10969;49.550;25.564;2022-08-19T13:58:33;1.20;;;1.10;;
21613;SDS011;10969;49.550;25.564;2022-08-19T14:00:59;1.52;;;1.23;;
21613;SDS011;10969;49.550;25.564;2022-08-19T14:03:25;1.48;;;1.27;;
21613;SDS011;10969;49.550;25.564;2022-08-19T14:05:51;1.80;;;1.30;;
21613;SDS011;10969;49.550;25.564;2022-08-19T14:08:17;1.70;;;1.30;;
21613;SDS011;10969;49.550;25.564;2022-08-19T14:10:44;1.58;;;1.48;;
21613;SDS011;10969;49.550;25.564;2022-08-19T14:13:12;1.08;;;1.00;;
21613;SDS011;10969;49.550;25.564;2022-08-19T14:15:39;2.13;;;1.17;;
21613;SDS011;10969;49.550;25.564;2022-08-19T14:18:05;1.40;;;0.98;;
21613;SDS011;10969;49.550;25.564;2022-08-19T14:20:33;2.28;;;1.20;;
21613;SDS011;10969;49.550;25.564;2022-08-19T14:23:00;1.20;;;1.10;;
21613;SDS011;10969;49.550;25.564;2022-08-19T14:25:27;1.50;;;0.98;;
21613;SDS011;10969;49.550;25.564;2022-08-19T14:27:53;1.63;;;1.42;;
21613;SDS011;10969;49.550;25.564;2022-08-19T14:30:21;2.65;;;1.55;;
21613;SDS011;10969;49.550;25.564;2022-08-19T14:32:48;2.08;;;1.30;;
21613;SDS011;10969;49.550;25.564;2022-08-19T14:35:14;2.40;;;1.60;;
21613;SDS011;10969;49.550;25.564;2022-08-19T14:37:41;1.00;;;0.90;;
21613;SDS011;10969;49.550;25.564;2022-08-19T14:40:07;2.00;;;1.23;;
21613;SDS011;10969;49.550;25.564;2022-08-19T14:42:34;1.48;;;1.13;;
21613;SDS011;10969;49.550;25.564;2022-08-19T14:45:02;4.68;;;1.35;;
21613;SDS011;10969;49.550;25.564;2022-08-19T14:47:30;1.73;;;1.20;;